createdAt,value
2023-03-17T00:01:39.812Z,14.23
2023-03-17T00:04:11.704Z,16.37
2023-03-17T00:06:40.357Z,10.70
2023-03-17T00:09:15.903Z,14.55
2023-03-17T00:11:44.429Z,11.40
2023-03-17T00:14:12.341Z,11.07
2023-03-17T00:16:43.015Z,11.20
2023-03-17T00:19:17.204Z,11.07
2023-03-17T00:21:48.249Z,13.85
2023-03-17T00:24:16.132Z,11.27
2023-03-17T00:26:43.917Z,14.48
2023-03-17T00:29:12.033Z,14.95
2023-03-17T00:31:39.804Z,14.25
2023-03-17T00:34:12.258Z,12.65
2023-03-17T00:36:40.858Z,14.17
2023-03-17T00:41:40.827Z,14.10
2023-03-17T00:44:08.389Z,13.73
2023-03-17T00:46:38.167Z,15.57
2023-03-17T00:49:20.686Z,11.93
2023-03-17T00:51:49.792Z,14.13
2023-03-17T00:54:19.606Z,9.70
2023-03-17T00:56:48.604Z,17.65
2023-03-17T00:59:30.725Z,12.88
2023-03-17T01:01:58.772Z,11.63
2023-03-17T01:04:26.480Z,11.55
2023-03-17T01:06:54.444Z,11.85
2023-03-17T01:09:26.405Z,13.25
2023-03-17T01:11:55.773Z,12.80
2023-03-17T01:14:25.000Z,12.90
2023-03-17T01:16:55.649Z,12.85
2023-03-17T01:19:23.781Z,14.13
2023-03-17T01:21:52.351Z,10.00
2023-03-17T01:24:19.970Z,10.82
2023-03-17T01:26:47.470Z,12.53
2023-03-17T01:29:16.652Z,14.45
2023-03-17T01:31:46.281Z,10.88
2023-03-17T01:34:13.920Z,13.05
2023-03-17T01:36:43.320Z,14.13
2023-03-17T01:39:11.177Z,12.30
2023-03-17T01:41:40.313Z,12.63
2023-03-17T01:44:15.775Z,12.15
2023-03-17T01:46:44.116Z,11.38
2023-03-17T01:49:12.761Z,11.65
2023-03-17T01:51:52.696Z,14.17
2023-03-17T01:54:29.787Z,13.98
2023-03-17T01:57:04.383Z,11.25
2023-03-17T01:59:35.910Z,15.32
2023-03-17T02:02:09.426Z,13.40
2023-03-17T02:04:39.124Z,9.77
2023-03-17T02:07:07.016Z,19.40
2023-03-17T02:09:35.011Z,13.30
2023-03-17T02:12:03.175Z,10.43
2023-03-17T02:14:30.829Z,13.77
2023-03-17T02:16:58.911Z,12.77
2023-03-17T02:19:26.795Z,11.12
2023-03-17T02:21:55.964Z,9.90
2023-03-17T02:24:26.814Z,11.50
2023-03-17T02:26:56.172Z,14.02
2023-03-17T02:29:24.389Z,12.27
2023-03-17T02:31:52.277Z,11.55
2023-03-17T02:34:21.959Z,11.65
2023-03-17T02:36:49.960Z,9.30
2023-03-17T02:39:17.858Z,11.35
2023-03-17T02:41:46.169Z,13.00
2023-03-17T02:44:14.641Z,14.95
2023-03-17T02:46:42.598Z,14.43
2023-03-17T02:49:11.891Z,14.60
2023-03-17T02:51:40.017Z,10.02
2023-03-17T02:54:07.934Z,16.50
2023-03-17T02:56:35.925Z,14.45
2023-03-17T02:59:04.475Z,14.52
2023-03-17T03:01:32.273Z,12.48
2023-03-17T03:03:59.955Z,10.27
2023-03-17T03:06:27.901Z,14.00
2023-03-17T03:08:55.476Z,9.65
2023-03-17T03:11:23.417Z,12.57
2023-03-17T03:13:51.305Z,13.13
2023-03-17T03:16:18.913Z,17.98
2023-03-17T03:18:46.541Z,14.83
2023-03-17T03:21:14.489Z,15.98
2023-03-17T03:23:43.348Z,12.45
2023-03-17T03:26:10.862Z,15.30
2023-03-17T03:28:38.698Z,13.20
2023-03-17T03:31:06.783Z,15.13
2023-03-17T03:33:34.759Z,13.98
2023-03-17T03:36:03.063Z,15.15
2023-03-17T03:38:30.804Z,15.52
2023-03-17T03:40:58.394Z,11.60
2023-03-17T03:43:26.296Z,15.20
2023-03-17T03:45:54.691Z,11.57
2023-03-17T03:48:22.850Z,15.52
2023-03-17T03:50:50.751Z,14.63
2023-03-17T03:53:18.519Z,14.93
2023-03-17T03:55:46.086Z,13.73
2023-03-17T03:58:14.084Z,14.95
2023-03-17T04:00:41.638Z,12.85
2023-03-17T04:03:09.607Z,12.88
2023-03-17T04:05:37.249Z,12.00
2023-03-17T04:08:05.342Z,9.83
2023-03-17T04:10:33.793Z,13.48
2023-03-17T04:13:01.407Z,15.25
2023-03-17T04:15:29.302Z,12.77
2023-03-17T04:17:57.175Z,14.30
2023-03-17T04:20:24.794Z,10.13
2023-03-17T04:22:52.474Z,13.40
2023-03-17T04:25:20.383Z,10.85
2023-03-17T04:27:48.157Z,12.77
2023-03-17T04:30:17.042Z,11.43
2023-03-17T04:32:46.402Z,11.87
2023-03-17T04:35:17.467Z,12.10
2023-03-17T04:37:45.661Z,11.07
2023-03-17T04:40:14.499Z,18.77
2023-03-17T04:42:42.227Z,12.50
2023-03-17T04:45:12.653Z,10.87
2023-03-17T04:47:40.531Z,13.93
2023-03-17T04:50:09.020Z,12.85
2023-03-17T04:52:37.512Z,16.25
2023-03-17T04:55:06.867Z,13.98
2023-03-17T04:57:34.896Z,19.33
2023-03-17T05:00:05.104Z,11.60
2023-03-17T05:02:33.054Z,11.00
2023-03-17T05:05:01.185Z,12.15
2023-03-17T05:07:29.178Z,10.80
2023-03-17T05:09:57.798Z,15.83
2023-03-17T05:12:25.461Z,12.00
2023-03-17T05:14:53.309Z,13.62
2023-03-17T05:17:20.854Z,15.88
2023-03-17T05:19:48.365Z,13.40
2023-03-17T05:22:16.692Z,14.00
2023-03-17T05:24:44.763Z,12.20
2023-03-17T05:27:12.288Z,14.85
2023-03-17T05:29:40.289Z,14.87
2023-03-17T05:32:07.802Z,13.50
2023-03-17T05:34:35.352Z,13.80
2023-03-17T05:37:03.423Z,10.10
2023-03-17T05:39:30.958Z,18.02
2023-03-17T05:41:58.541Z,14.65
2023-03-17T05:44:26.325Z,12.52
2023-03-17T05:46:55.291Z,17.00
2023-03-17T05:49:22.928Z,10.30
2023-03-17T05:51:51.200Z,11.00
2023-03-17T05:54:18.847Z,11.52
2023-03-17T05:56:46.756Z,20.23
2023-03-17T05:59:16.761Z,28.70
2023-03-17T06:01:44.582Z,36.05
2023-03-17T06:04:12.801Z,38.65
2023-03-17T06:06:40.421Z,24.15
2023-03-17T06:09:08.500Z,30.25
2023-03-17T06:11:36.999Z,13.93
2023-03-17T06:14:04.562Z,69.40
2023-03-17T06:16:33.284Z,45.00
2023-03-17T06:19:01.546Z,20.88
2023-03-17T06:21:29.179Z,25.42
2023-03-17T06:23:56.772Z,38.80
2023-03-17T06:26:24.707Z,62.03
2023-03-17T06:28:52.185Z,66.68
2023-03-17T06:31:20.378Z,35.63
2023-03-17T06:33:48.555Z,36.92
2023-03-17T06:36:17.022Z,23.43
2023-03-17T06:38:46.124Z,15.05
2023-03-17T06:41:13.875Z,15.45
2023-03-17T06:43:42.090Z,17.60
2023-03-17T06:46:09.933Z,16.17
2023-03-17T06:48:38.421Z,15.53
2023-03-17T06:51:06.352Z,12.68
2023-03-17T06:53:33.984Z,10.45
2023-03-17T06:56:02.262Z,13.35
2023-03-17T06:58:30.720Z,12.00
2023-03-17T07:00:59.857Z,12.87
2023-03-17T07:03:27.920Z,12.80
2023-03-17T07:05:55.522Z,14.32
2023-03-17T07:08:23.238Z,13.43
2023-03-17T07:10:55.980Z,11.90
2023-03-17T07:13:24.578Z,10.07
2023-03-17T07:15:55.229Z,12.48
2023-03-17T07:18:23.769Z,10.90
2023-03-17T07:20:51.361Z,14.80
2023-03-17T07:23:21.754Z,11.93
2023-03-17T07:25:50.332Z,10.20
2023-03-17T07:28:19.242Z,11.18
2023-03-17T07:30:48.564Z,13.18
2023-03-17T07:33:17.830Z,11.70
2023-03-17T07:35:45.429Z,11.95
2023-03-17T07:38:13.275Z,12.07
2023-03-17T07:40:41.377Z,11.73
2023-03-17T07:43:09.562Z,10.50
2023-03-17T07:45:38.288Z,10.75
2023-03-17T07:48:06.815Z,9.57
2023-03-17T07:50:35.603Z,10.50
2023-03-17T07:53:03.957Z,11.55
2023-03-17T07:55:32.683Z,9.38
2023-03-17T07:58:00.906Z,8.52
2023-03-17T08:00:29.185Z,12.00
2023-03-17T08:03:09.307Z,10.97
2023-03-17T08:05:38.076Z,10.77
2023-03-17T08:08:06.818Z,10.75
2023-03-17T08:10:35.039Z,9.27
2023-03-17T08:13:03.000Z,10.43
2023-03-17T08:15:31.394Z,11.37
2023-03-17T08:18:01.403Z,10.82
2023-03-17T08:20:30.465Z,7.85
2023-03-17T08:23:00.927Z,9.50
2023-03-17T08:25:28.856Z,10.20
2023-03-17T08:27:56.363Z,11.67
2023-03-17T08:30:24.228Z,7.28
2023-03-17T08:32:54.028Z,10.88
2023-03-17T08:35:21.553Z,8.80
2023-03-17T08:37:49.405Z,8.77
2023-03-17T08:40:19.745Z,8.13
2023-03-17T08:42:48.659Z,7.35
2023-03-17T08:45:19.026Z,10.48
2023-03-17T08:47:48.460Z,11.93
2023-03-17T08:50:21.047Z,7.78
2023-03-17T08:52:49.138Z,8.37
2023-03-17T08:55:17.421Z,9.05
2023-03-17T08:57:46.223Z,7.28
2023-03-17T09:00:16.138Z,6.72
2023-03-17T09:02:45.002Z,5.78
2023-03-17T09:05:15.209Z,9.13
2023-03-17T09:07:43.566Z,6.37
2023-03-17T09:10:13.712Z,7.12
2023-03-17T09:12:41.584Z,8.43
2023-03-17T09:15:10.272Z,6.72
2023-03-17T09:17:38.030Z,8.20
2023-03-17T09:20:06.605Z,7.50
2023-03-17T09:22:34.350Z,9.05
2023-03-17T09:25:02.254Z,7.15
2023-03-17T09:27:29.868Z,6.82
2023-03-17T09:29:58.004Z,7.80
2023-03-17T09:32:25.893Z,6.62
2023-03-17T09:34:53.964Z,8.05
2023-03-17T09:37:22.208Z,7.00
2023-03-17T09:39:50.311Z,7.03
2023-03-17T09:42:28.077Z,6.20
2023-03-17T09:45:02.830Z,5.97
2023-03-17T09:47:41.085Z,5.82
2023-03-17T09:50:18.526Z,6.60
2023-03-17T09:52:46.175Z,6.50
2023-03-17T09:55:23.184Z,6.30
2023-03-17T09:57:52.351Z,7.87
2023-03-17T10:00:26.739Z,8.55
2023-03-17T10:02:55.893Z,6.57
2023-03-17T10:05:26.826Z,6.40
2023-03-17T10:08:29.588Z,6.70
2023-03-17T10:11:20.496Z,6.62
2023-03-17T10:13:55.322Z,6.78
2023-03-17T10:16:29.804Z,6.37
2023-03-17T10:19:12.490Z,7.72
2023-03-17T10:21:48.581Z,7.30
2023-03-17T10:24:17.044Z,8.05
2023-03-17T10:26:47.008Z,6.10
2023-03-17T10:29:22.631Z,5.72
2023-03-17T10:31:52.155Z,7.95
2023-03-17T10:34:23.893Z,7.07
2023-03-17T10:37:02.000Z,6.72
2023-03-17T10:39:32.471Z,7.60
2023-03-17T10:42:11.688Z,7.00
2023-03-17T10:44:44.011Z,7.37
2023-03-17T10:47:32.278Z,7.37
2023-03-17T10:50:15.487Z,15.45
2023-03-17T10:52:44.638Z,5.50
2023-03-17T10:55:16.417Z,6.53
2023-03-17T10:57:55.317Z,7.18
2023-03-17T11:00:24.699Z,6.03
2023-03-17T11:02:57.989Z,6.40
2023-03-17T11:05:30.005Z,6.78
2023-03-17T11:08:07.197Z,5.75
2023-03-17T11:10:38.148Z,6.82
2023-03-17T11:13:21.294Z,8.60
2023-03-17T11:15:54.458Z,6.22
2023-03-17T11:18:25.505Z,5.75
2023-03-17T11:21:01.825Z,6.15
2023-03-17T11:23:43.077Z,8.10
2023-03-17T11:26:28.881Z,6.03
2023-03-17T11:29:16.747Z,6.35
2023-03-17T11:31:53.807Z,6.20
2023-03-17T11:34:48.552Z,6.28
2023-03-17T11:37:34.175Z,6.47
2023-03-17T11:40:12.127Z,7.53
2023-03-17T11:43:11.393Z,8.45
2023-03-17T11:45:54.310Z,6.05
2023-03-17T11:49:01.033Z,9.30
2023-03-17T11:51:37.531Z,7.05
2023-03-17T11:54:12.469Z,6.60
2023-03-17T11:56:43.130Z,5.18
2023-03-17T11:59:42.237Z,7.10
2023-03-17T12:02:31.660Z,9.20
2023-03-17T12:05:02.574Z,5.78
2023-03-17T12:07:35.685Z,7.77
2023-03-17T12:10:21.921Z,6.75
2023-03-17T12:13:03.097Z,6.53
2023-03-17T12:15:42.023Z,5.10
2023-03-17T12:18:21.721Z,7.18
2023-03-17T12:20:56.019Z,5.00
2023-03-17T12:23:33.135Z,5.68
2023-03-17T12:26:08.418Z,5.80
2023-03-17T12:28:42.054Z,6.45
2023-03-17T12:31:14.467Z,6.62
2023-03-17T12:34:02.802Z,5.50
2023-03-17T12:36:31.264Z,6.00
2023-03-17T12:38:59.241Z,5.55
2023-03-17T12:41:42.990Z,6.28
2023-03-17T12:44:24.306Z,5.37
2023-03-17T12:47:32.743Z,6.00
2023-03-17T12:50:04.639Z,5.75
2023-03-17T12:52:38.554Z,6.95
2023-03-17T12:55:13.741Z,6.35
2023-03-17T12:57:43.951Z,8.70
2023-03-17T13:00:15.417Z,6.83
2023-03-17T13:02:46.210Z,6.28
2023-03-17T13:05:16.522Z,9.60
2023-03-17T13:08:13.951Z,4.95
2023-03-17T13:10:48.153Z,5.55
2023-03-17T13:13:41.688Z,5.77
2023-03-17T13:16:30.067Z,5.80
2023-03-17T13:19:24.575Z,5.95
2023-03-17T13:22:06.301Z,5.35
2023-03-17T13:24:51.989Z,7.15
2023-03-17T13:27:32.492Z,6.43
2023-03-17T13:30:22.876Z,7.87
2023-03-17T13:33:04.169Z,6.22
2023-03-17T13:35:53.961Z,6.15
2023-03-17T13:38:35.496Z,6.28
2023-03-17T13:41:03.140Z,6.97
2023-03-17T13:43:52.255Z,5.57
2023-03-17T13:46:24.476Z,6.10
2023-03-17T13:48:54.772Z,5.03
2023-03-17T13:51:27.573Z,5.15
2023-03-17T13:53:59.185Z,5.77
2023-03-17T13:56:42.209Z,7.43
2023-03-17T13:59:18.256Z,7.57
2023-03-17T14:02:02.825Z,7.75
2023-03-17T14:05:13.269Z,6.40
2023-03-17T14:07:48.035Z,6.43
2023-03-17T14:10:21.925Z,6.30
2023-03-17T14:13:12.506Z,6.82
2023-03-17T14:16:05.806Z,50.47
2023-03-17T14:18:39.380Z,11.25
2023-03-17T14:21:18.492Z,32.40
2023-03-17T14:23:56.735Z,24.20
2023-03-17T14:26:25.761Z,8.23
2023-03-17T14:28:53.587Z,5.03
2023-03-17T14:31:24.558Z,7.10
2023-03-17T14:33:55.737Z,16.07
2023-03-17T14:36:23.952Z,18.23
2023-03-17T14:38:54.332Z,10.73
2023-03-17T14:41:30.350Z,8.65
2023-03-17T14:44:00.402Z,6.85
2023-03-17T14:46:32.232Z,8.87
2023-03-17T14:49:04.001Z,8.52
2023-03-17T14:51:39.112Z,10.07
2023-03-17T14:54:15.507Z,8.85
2023-03-17T14:56:50.943Z,6.32
2023-03-17T14:59:34.849Z,6.97
2023-03-17T15:02:16.592Z,11.43
2023-03-17T15:04:53.594Z,9.48
2023-03-17T15:07:41.271Z,10.48
2023-03-17T15:10:31.047Z,8.20
2023-03-17T15:13:04.094Z,16.83
2023-03-17T15:15:34.119Z,8.80
2023-03-17T15:18:10.340Z,9.05
2023-03-17T15:20:38.273Z,8.02
2023-03-17T15:23:17.135Z,6.30
2023-03-17T15:25:47.135Z,5.43
2023-03-17T15:28:17.277Z,6.87
2023-03-17T15:30:50.266Z,7.55
2023-03-17T15:33:21.985Z,4.87
2023-03-17T15:35:50.570Z,6.37
2023-03-17T15:38:18.914Z,7.07
2023-03-17T15:40:46.473Z,7.28
2023-03-17T15:43:15.668Z,5.35
2023-03-17T15:45:45.137Z,5.95
2023-03-17T15:48:19.526Z,10.65
2023-03-17T15:50:49.176Z,6.47
2023-03-17T15:53:17.038Z,6.78
2023-03-17T15:55:44.755Z,9.00
2023-03-17T15:58:12.985Z,22.62
2023-03-17T16:00:41.501Z,10.07
2023-03-17T16:03:29.367Z,9.37
2023-03-17T16:05:56.955Z,7.05
2023-03-17T16:08:24.945Z,11.65
2023-03-17T16:10:52.658Z,10.90
2023-03-17T16:13:20.309Z,8.32
2023-03-17T16:16:15.904Z,9.80
2023-03-17T16:18:43.926Z,11.12
2023-03-17T16:21:12.463Z,17.65
2023-03-17T16:23:40.702Z,15.10
2023-03-17T16:26:15.554Z,9.32
2023-03-17T16:28:46.345Z,5.83
2023-03-17T16:31:19.904Z,7.07
2023-03-17T16:33:48.303Z,7.10
2023-03-17T16:36:17.628Z,9.88
2023-03-17T16:38:45.899Z,6.30
2023-03-17T16:41:19.147Z,6.73
2023-03-17T16:43:51.264Z,6.78
2023-03-17T16:46:20.841Z,10.05
2023-03-17T16:48:49.808Z,8.77
2023-03-17T16:51:17.971Z,20.25
2023-03-17T16:53:45.965Z,44.43
2023-03-17T16:56:16.604Z,35.10
2023-03-17T16:58:45.132Z,27.40
2023-03-17T17:01:16.369Z,23.05
2023-03-17T17:03:44.733Z,27.30
2023-03-17T17:06:14.486Z,27.47
2023-03-17T17:08:43.833Z,28.77
2023-03-17T17:11:13.357Z,26.42
2023-03-17T17:13:42.637Z,23.83
2023-03-17T17:16:18.010Z,27.23
2023-03-17T17:18:47.346Z,29.47
2023-03-17T17:21:16.676Z,34.60
2023-03-17T17:23:46.180Z,44.15
2023-03-17T17:26:14.049Z,38.42
2023-03-17T17:28:42.803Z,41.53
2023-03-17T17:31:10.930Z,44.10
2023-03-17T17:33:38.800Z,41.42
2023-03-17T17:36:13.030Z,49.53
2023-03-17T17:38:42.067Z,43.08
2023-03-17T17:41:11.084Z,41.45
2023-03-17T17:43:39.114Z,32.23
2023-03-17T17:46:11.926Z,36.03
2023-03-17T17:48:39.896Z,32.70
2023-03-17T17:51:07.666Z,33.65
2023-03-17T17:53:35.235Z,33.10
2023-03-17T17:56:03.490Z,36.23
2023-03-17T17:58:32.556Z,42.67
2023-03-17T18:01:00.739Z,41.35
2023-03-17T18:03:31.538Z,40.25
2023-03-17T18:06:00.920Z,42.30
2023-03-17T18:08:29.150Z,41.77
2023-03-17T18:10:57.386Z,37.88
2023-03-17T18:13:25.738Z,37.03
2023-03-17T18:15:53.722Z,32.40
2023-03-17T18:18:21.732Z,31.10
2023-03-17T18:20:49.605Z,30.63
2023-03-17T18:23:17.771Z,28.95
2023-03-17T18:25:45.324Z,34.53
2023-03-17T18:28:13.341Z,26.27
2023-03-17T18:30:41.384Z,30.20
2023-03-17T18:33:14.244Z,28.50
2023-03-17T18:35:45.104Z,33.03
2023-03-17T18:38:13.285Z,31.87
2023-03-17T18:40:42.300Z,29.55
2023-03-17T18:43:10.891Z,31.62
2023-03-17T18:45:38.787Z,33.40
2023-03-17T18:48:07.194Z,32.30
2023-03-17T18:50:37.120Z,34.25
2023-03-17T18:53:05.434Z,30.30
2023-03-17T18:55:33.244Z,29.05
2023-03-17T18:58:01.442Z,29.63
2023-03-17T19:00:29.872Z,29.98
2023-03-17T19:02:57.936Z,27.37
2023-03-17T19:05:25.997Z,25.58
2023-03-17T19:07:53.996Z,27.90
2023-03-17T19:10:21.847Z,31.13
2023-03-17T19:12:50.645Z,26.33
2023-03-17T19:15:19.595Z,27.45
2023-03-17T19:17:47.596Z,28.50
2023-03-17T19:20:15.937Z,27.62
2023-03-17T19:22:43.424Z,27.77
2023-03-17T19:25:11.452Z,24.60
2023-03-17T19:27:40.033Z,26.55
2023-03-17T19:30:08.908Z,29.75
2023-03-17T19:32:37.271Z,27.75
2023-03-17T19:35:07.555Z,28.23
2023-03-17T19:37:36.095Z,28.27
2023-03-17T19:40:06.210Z,27.60
2023-03-17T19:42:35.164Z,34.70
2023-03-17T19:45:03.804Z,38.20
2023-03-17T19:47:31.618Z,37.93
2023-03-17T19:49:59.585Z,45.25
2023-03-17T19:52:27.433Z,38.33
2023-03-17T19:54:56.416Z,41.60
2023-03-17T19:57:24.631Z,37.88
2023-03-17T19:59:52.178Z,46.43
2023-03-17T20:02:20.666Z,42.85
2023-03-17T20:04:49.574Z,39.25
2023-03-17T20:07:17.390Z,40.72
2023-03-17T20:09:48.003Z,44.53
2023-03-17T20:12:16.118Z,40.13
2023-03-17T20:14:44.087Z,42.05
2023-03-17T20:17:12.235Z,43.95
2023-03-17T20:19:40.536Z,46.78
2023-03-17T20:22:08.827Z,41.78
2023-03-17T20:24:36.421Z,44.43
2023-03-17T20:27:05.216Z,44.78
2023-03-17T20:29:33.480Z,52.53
2023-03-17T20:32:02.165Z,54.83
2023-03-17T20:34:31.843Z,56.53
2023-03-17T20:36:59.395Z,64.63
2023-03-17T20:39:27.272Z,68.32
2023-03-17T20:41:55.677Z,64.87
2023-03-17T20:44:24.071Z,63.28
2023-03-17T20:46:53.091Z,72.82
2023-03-17T20:49:21.173Z,74.50
2023-03-17T20:51:48.989Z,66.82
2023-03-17T20:54:17.999Z,72.25
2023-03-17T20:56:45.900Z,72.30
2023-03-17T20:59:13.652Z,73.55
2023-03-17T21:01:42.690Z,66.07
2023-03-17T21:04:12.644Z,71.18
2023-03-17T21:06:41.564Z,63.92
2023-03-17T21:09:10.136Z,68.90
2023-03-17T21:11:38.279Z,64.30
2023-03-17T21:14:09.388Z,66.27
2023-03-17T21:16:37.295Z,62.38
2023-03-17T21:19:09.684Z,75.62
2023-03-17T21:21:37.712Z,73.62
2023-03-17T21:24:07.102Z,73.85
2023-03-17T21:26:35.330Z,74.77
2023-03-17T21:29:03.161Z,70.80
2023-03-17T21:31:31.409Z,69.80
2023-03-17T21:33:59.302Z,68.97
2023-03-17T21:36:27.442Z,67.47
2023-03-17T21:38:55.239Z,66.00
2023-03-17T21:41:34.199Z,66.62
2023-03-17T21:44:03.317Z,54.60
2023-03-17T21:46:31.761Z,57.10
2023-03-17T21:49:00.454Z,57.70
2023-03-17T21:51:28.781Z,51.67
2023-03-17T21:53:57.802Z,49.47
2023-03-17T21:56:25.410Z,51.47
2023-03-17T21:58:53.615Z,51.78
2023-03-17T22:01:24.383Z,54.97
2023-03-17T22:03:52.524Z,55.67
2023-03-17T22:06:20.768Z,55.45
2023-03-17T22:08:48.899Z,47.25
2023-03-17T22:11:18.781Z,44.58
2023-03-17T22:13:46.937Z,42.75
2023-03-17T22:16:15.959Z,42.90
2023-03-17T22:18:44.229Z,41.97
2023-03-17T22:21:11.826Z,50.55
2023-03-17T22:23:42.675Z,61.70
2023-03-17T22:26:18.961Z,77.57
2023-03-17T22:28:47.726Z,73.80
2023-03-17T22:31:18.437Z,73.57
2023-03-17T22:33:48.457Z,70.00
2023-03-17T22:36:17.948Z,48.92
2023-03-17T22:38:46.086Z,34.95
2023-03-17T22:41:16.633Z,40.77
2023-03-17T22:43:45.044Z,41.28
2023-03-17T22:46:13.864Z,41.53
2023-03-17T22:48:41.538Z,46.22
2023-03-17T22:51:17.340Z,40.88
2023-03-17T22:53:45.569Z,41.20
2023-03-17T22:56:14.855Z,38.03
2023-03-17T22:58:43.384Z,36.15
2023-03-17T23:01:12.517Z,35.83
2023-03-17T23:03:40.767Z,37.30
2023-03-17T23:06:09.007Z,39.87
2023-03-17T23:08:38.519Z,39.30
2023-03-17T23:11:08.807Z,36.85
2023-03-17T23:13:37.464Z,42.45
2023-03-17T23:16:06.404Z,51.03
2023-03-17T23:18:34.708Z,39.27
2023-03-17T23:21:03.439Z,49.05
2023-03-17T23:23:31.372Z,48.97
2023-03-17T23:25:59.382Z,36.60
2023-03-17T23:28:27.311Z,32.80
2023-03-17T23:30:55.369Z,32.23
2023-03-17T23:33:25.572Z,35.00
2023-03-17T23:35:53.329Z,32.72
2023-03-17T23:38:21.525Z,34.10
2023-03-17T23:40:49.626Z,38.63
2023-03-17T23:43:17.508Z,39.30
2023-03-17T23:45:45.510Z,34.17
2023-03-17T23:48:13.670Z,32.35
2023-03-17T23:50:42.425Z,35.88
2023-03-17T23:53:11.590Z,33.05
2023-03-17T23:55:40.160Z,33.50
2023-03-17T23:58:07.954Z,31.67
